sensor_id;sensor_type;location;lat;lon;timestamp;temperature;humidity
24144;DHT22;12307;50.828;6.080;2023-09-30T00:02:16;22.00;79.00
24144;DHT22;12307;50.828;6.080;2023-09-30T00:04:41;22.00;78.90
24144;DHT22;12307;50.828;6.080;2023-09-30T00:07:07;22.00;79.00
24144;DHT22;12307;50.828;6.080;2023-09-30T00:09:33;22.00;79.00
24144;DHT22;12307;50.828;6.080;2023-09-30T00:11:59;22.00;79.00
24144;DHT22;12307;50.828;6.080;2023-09-30T00:14:25;22.00;79.00
24144;DHT22;12307;50.828;6.080;2023-09-30T00:16:52;21.90;78.90
24144;DHT22;12307;50.828;6.080;2023-09-30T00:19:18;21.90;78.90
24144;DHT22;12307;50.828;6.080;2023-09-30T00:21:44;21.90;78.90
24144;DHT22;12307;50.828;6.080;2023-09-30T00:24:09;21.90;78.90
24144;DHT22;12307;50.828;6.080;2023-09-30T00:26:35;21.90;78.90
24144;DHT22;12307;50.828;6.080;2023-09-30T00:29:01;21.90;79.00
24144;DHT22;12307;50.828;6.080;2023-09-30T00:31:30;21.90;79.10
24144;DHT22;12307;50.828;6.080;2023-09-30T00:33:57;21.90;79.10
24144;DHT22;12307;50.828;6.080;2023-09-30T00:36:23;21.90;79.10
24144;DHT22;12307;50.828;6.080;2023-09-30T00:38:48;21.90;79.10
24144;DHT22;12307;50.828;6.080;2023-09-30T00:41:14;21.90;79.10
24144;DHT22;12307;50.828;6.080;2023-09-30T00:43:40;21.90;79.10
24144;DHT22;12307;50.828;6.080;2023-09-30T00:46:14;21.90;79.10
24144;DHT22;12307;50.828;6.080;2023-09-30T00:48:43;21.90;79.20
24144;DHT22;12307;50.828;6.080;2023-09-30T00:51:11;21.90;79.20
24144;DHT22;12307;50.828;6.080;2023-09-30T00:53:37;21.90;79.20
24144;DHT22;12307;50.828;6.080;2023-09-30T00:56:03;21.90;79.20
24144;DHT22;12307;50.828;6.080;2023-09-30T00:58:29;21.80;79.10
24144;DHT22;12307;50.828;6.080;2023-09-30T01:00:57;21.80;79.10
24144;DHT22;12307;50.828;6.080;2023-09-30T01:03:23;21.80;79.10
24144;DHT22;12307;50.828;6.080;2023-09-30T01:05:49;21.80;79.20
24144;DHT22;12307;50.828;6.080;2023-09-30T01:08:16;21.80;79.20
24144;DHT22;12307;50.828;6.080;2023-09-30T01:10:43;21.80;79.20
24144;DHT22;12307;50.828;6.080;2023-09-30T01:13:09;21.80;79.20
24144;DHT22;12307;50.828;6.080;2023-09-30T01:15:35;21.80;79.20
24144;DHT22;12307;50.828;6.080;2023-09-30T01:18:02;21.80;80.00
24144;DHT22;12307;50.828;6.080;2023-09-30T01:20:28;21.80;79.20
24144;DHT22;12307;50.828;6.080;2023-09-30T01:22:57;21.80;79.20
24144;DHT22;12307;50.828;6.080;2023-09-30T01:25:22;21.80;79.20
24144;DHT22;12307;50.828;6.080;2023-09-30T01:27:49;21.80;79.20
24144;DHT22;12307;50.828;6.080;2023-09-30T01:30:17;21.80;79.20
24144;DHT22;12307;50.828;6.080;2023-09-30T01:32:43;21.80;79.30
24144;DHT22;12307;50.828;6.080;2023-09-30T01:35:09;21.80;79.30
24144;DHT22;12307;50.828;6.080;2023-09-30T01:37:35;21.80;79.30
24144;DHT22;12307;50.828;6.080;2023-09-30T01:40:03;21.80;79.30
24144;DHT22;12307;50.828;6.080;2023-09-30T01:42:33;21.80;79.30
24144;DHT22;12307;50.828;6.080;2023-09-30T01:44:59;21.80;79.30
24144;DHT22;12307;50.828;6.080;2023-09-30T01:47:25;21.70;79.20
24144;DHT22;12307;50.828;6.080;2023-09-30T01:49:50;21.80;79.30
24144;DHT22;12307;50.828;6.080;2023-09-30T01:52:16;21.70;79.30
24144;DHT22;12307;50.828;6.080;2023-09-30T01:54:42;21.70;79.30
24144;DHT22;12307;50.828;6.080;2023-09-30T01:57:09;21.70;79.30
24144;DHT22;12307;50.828;6.080;2023-09-30T01:59:35;21.70;79.30
24144;DHT22;12307;50.828;6.080;2023-09-30T02:02:01;21.70;79.30
24144;DHT22;12307;50.828;6.080;2023-09-30T02:04:28;21.70;79.30
24144;DHT22;12307;50.828;6.080;2023-09-30T02:06:54;21.70;79.30
24144;DHT22;12307;50.828;6.080;2023-09-30T02:09:20;21.70;79.30
24144;DHT22;12307;50.828;6.080;2023-09-30T02:11:46;21.70;79.30
24144;DHT22;12307;50.828;6.080;2023-09-30T02:14:14;21.70;79.30
24144;DHT22;12307;50.828;6.080;2023-09-30T02:16:39;21.70;79.30
24144;DHT22;12307;50.828;6.080;2023-09-30T02:19:05;21.70;79.30
24144;DHT22;12307;50.828;6.080;2023-09-30T02:21:32;21.70;79.30
24144;DHT22;12307;50.828;6.080;2023-09-30T02:23:58;21.70;79.30
24144;DHT22;12307;50.828;6.080;2023-09-30T02:26:24;21.70;79.30
24144;DHT22;12307;50.828;6.080;2023-09-30T02:28:51;21.70;79.40
24144;DHT22;12307;50.828;6.080;2023-09-30T02:31:18;21.70;79.40
24144;DHT22;12307;50.828;6.080;2023-09-30T02:33:43;21.70;79.40
24144;DHT22;12307;50.828;6.080;2023-09-30T02:36:09;21.70;79.30
24144;DHT22;12307;50.828;6.080;2023-09-30T02:38:35;21.60;79.30
24144;DHT22;12307;50.828;6.080;2023-09-30T02:41:02;21.70;79.40
24144;DHT22;12307;50.828;6.080;2023-09-30T02:43:28;21.60;79.40
24144;DHT22;12307;50.828;6.080;2023-09-30T02:45:54;21.60;79.30
24144;DHT22;12307;50.828;6.080;2023-09-30T02:48:21;21.60;79.40
24144;DHT22;12307;50.828;6.080;2023-09-30T02:50:47;21.60;79.40
24144;DHT22;12307;50.828;6.080;2023-09-30T02:53:13;21.60;79.40
24144;DHT22;12307;50.828;6.080;2023-09-30T02:55:39;21.60;79.40
24144;DHT22;12307;50.828;6.080;2023-09-30T02:58:04;21.60;79.40
24144;DHT22;12307;50.828;6.080;2023-09-30T03:00:30;21.60;79.40
24144;DHT22;12307;50.828;6.080;2023-09-30T03:03:00;21.60;79.40
24144;DHT22;12307;50.828;6.080;2023-09-30T03:05:28;21.60;79.40
24144;DHT22;12307;50.828;6.080;2023-09-30T03:07:56;21.60;79.50
24144;DHT22;12307;50.828;6.080;2023-09-30T03:10:22;21.60;79.50
24144;DHT22;12307;50.828;6.080;2023-09-30T03:12:52;21.60;79.50
24144;DHT22;12307;50.828;6.080;2023-09-30T03:15:18;21.60;79.50
24144;DHT22;12307;50.828;6.080;2023-09-30T03:17:44;21.60;79.50
24144;DHT22;12307;50.828;6.080;2023-09-30T03:20:11;21.60;79.50
24144;DHT22;12307;50.828;6.080;2023-09-30T03:22:41;21.50;79.50
24144;DHT22;12307;50.828;6.080;2023-09-30T03:25:09;21.50;79.50
24144;DHT22;12307;50.828;6.080;2023-09-30T03:27:35;21.50;79.50
24144;DHT22;12307;50.828;6.080;2023-09-30T03:30:02;21.50;79.50
24144;DHT22;12307;50.828;6.080;2023-09-30T03:32:28;21.50;79.50
24144;DHT22;12307;50.828;6.080;2023-09-30T03:34:55;21.50;79.60
24144;DHT22;12307;50.828;6.080;2023-09-30T03:37:24;21.50;79.60
24144;DHT22;12307;50.828;6.080;2023-09-30T03:39:53;21.50;79.50
24144;DHT22;12307;50.828;6.080;2023-09-30T03:42:19;21.50;79.60
24144;DHT22;12307;50.828;6.080;2023-09-30T03:44:45;21.50;79.60
24144;DHT22;12307;50.828;6.080;2023-09-30T03:47:11;21.50;79.60
24144;DHT22;12307;50.828;6.080;2023-09-30T03:49:37;21.50;79.60
24144;DHT22;12307;50.828;6.080;2023-09-30T03:52:04;21.50;79.60
24144;DHT22;12307;50.828;6.080;2023-09-30T03:54:29;21.40;79.60
24144;DHT22;12307;50.828;6.080;2023-09-30T03:56:56;21.40;79.60
24144;DHT22;12307;50.828;6.080;2023-09-30T03:59:22;21.40;79.60
24144;DHT22;12307;50.828;6.080;2023-09-30T04:01:48;21.40;79.60
24144;DHT22;12307;50.828;6.080;2023-09-30T04:04:14;21.40;79.60
24144;DHT22;12307;50.828;6.080;2023-09-30T04:06:40;21.50;79.70
24144;DHT22;12307;50.828;6.080;2023-09-30T04:09:06;21.40;79.60
24144;DHT22;12307;50.828;6.080;2023-09-30T04:11:38;21.40;79.60
24144;DHT22;12307;50.828;6.080;2023-09-30T04:14:06;21.40;79.60
24144;DHT22;12307;50.828;6.080;2023-09-30T04:16:33;21.40;79.60
24144;DHT22;12307;50.828;6.080;2023-09-30T04:19:00;21.40;79.60
24144;DHT22;12307;50.828;6.080;2023-09-30T04:21:26;21.40;79.60
24144;DHT22;12307;50.828;6.080;2023-09-30T04:23:53;21.40;79.60
24144;DHT22;12307;50.828;6.080;2023-09-30T04:26:19;21.40;79.60
24144;DHT22;12307;50.828;6.080;2023-09-30T04:28:45;21.40;79.60
24144;DHT22;12307;50.828;6.080;2023-09-30T04:31:12;21.40;79.70
24144;DHT22;12307;50.828;6.080;2023-09-30T04:33:38;21.40;79.70
24144;DHT22;12307;50.828;6.080;2023-09-30T04:36:05;21.40;79.70
24144;DHT22;12307;50.828;6.080;2023-09-30T04:38:33;21.40;79.70
24144;DHT22;12307;50.828;6.080;2023-09-30T04:40:59;21.40;79.70
24144;DHT22;12307;50.828;6.080;2023-09-30T04:43:26;21.30;79.70
24144;DHT22;12307;50.828;6.080;2023-09-30T04:45:54;21.40;79.70
24144;DHT22;12307;50.828;6.080;2023-09-30T04:48:23;21.30;79.70
24144;DHT22;12307;50.828;6.080;2023-09-30T04:50:49;21.30;79.70
24144;DHT22;12307;50.828;6.080;2023-09-30T04:53:15;21.30;79.70
24144;DHT22;12307;50.828;6.080;2023-09-30T04:55:42;21.30;79.70
24144;DHT22;12307;50.828;6.080;2023-09-30T04:58:08;21.30;79.70
24144;DHT22;12307;50.828;6.080;2023-09-30T05:00:34;21.30;79.70
24144;DHT22;12307;50.828;6.080;2023-09-30T05:03:00;21.30;79.70
24144;DHT22;12307;50.828;6.080;2023-09-30T05:05:28;21.30;79.70
24144;DHT22;12307;50.828;6.080;2023-09-30T05:07:54;21.30;79.70
24144;DHT22;12307;50.828;6.080;2023-09-30T05:10:19;21.30;80.60
24144;DHT22;12307;50.828;6.080;2023-09-30T05:12:45;21.30;79.70
24144;DHT22;12307;50.828;6.080;2023-09-30T05:15:12;21.30;79.80
24144;DHT22;12307;50.828;6.080;2023-09-30T05:17:38;21.30;79.80
24144;DHT22;12307;50.828;6.080;2023-09-30T05:20:05;21.30;79.80
24144;DHT22;12307;50.828;6.080;2023-09-30T05:22:33;21.30;79.80
24144;DHT22;12307;50.828;6.080;2023-09-30T05:24:59;21.30;79.80
24144;DHT22;12307;50.828;6.080;2023-09-30T05:27:26;21.30;79.90
24144;DHT22;12307;50.828;6.080;2023-09-30T05:29:52;21.30;79.90
24144;DHT22;12307;50.828;6.080;2023-09-30T05:32:18;21.30;79.90
24144;DHT22;12307;50.828;6.080;2023-09-30T05:34:44;21.20;79.80
24144;DHT22;12307;50.828;6.080;2023-09-30T05:37:09;21.20;79.80
24144;DHT22;12307;50.828;6.080;2023-09-30T05:39:37;21.30;79.90
24144;DHT22;12307;50.828;6.080;2023-09-30T05:42:02;21.30;79.90
24144;DHT22;12307;50.828;6.080;2023-09-30T05:44:29;21.20;79.80
24144;DHT22;12307;50.828;6.080;2023-09-30T05:46:54;21.30;79.90
24144;DHT22;12307;50.828;6.080;2023-09-30T05:49:20;21.30;79.90
24144;DHT22;12307;50.828;6.080;2023-09-30T05:51:46;21.20;79.90
24144;DHT22;12307;50.828;6.080;2023-09-30T05:54:12;21.30;79.90
24144;DHT22;12307;50.828;6.080;2023-09-30T05:56:39;21.30;79.90
24144;DHT22;12307;50.828;6.080;2023-09-30T05:59:08;21.20;79.90
24144;DHT22;12307;50.828;6.080;2023-09-30T06:01:33;21.20;79.90
24144;DHT22;12307;50.828;6.080;2023-09-30T06:03:59;21.20;79.90
24144;DHT22;12307;50.828;6.080;2023-09-30T06:06:25;21.20;79.90
24144;DHT22;12307;50.828;6.080;2023-09-30T06:08:51;21.20;79.90
24144;DHT22;12307;50.828;6.080;2023-09-30T06:11:17;21.20;79.90
24144;DHT22;12307;50.828;6.080;2023-09-30T06:13:45;21.20;79.90
24144;DHT22;12307;50.828;6.080;2023-09-30T06:16:11;21.20;79.90
24144;DHT22;12307;50.828;6.080;2023-09-30T06:18:37;21.20;79.90
24144;DHT22;12307;50.828;6.080;2023-09-30T06:21:03;21.20;79.90
24144;DHT22;12307;50.828;6.080;2023-09-30T06:23:30;21.20;79.90
24144;DHT22;12307;50.828;6.080;2023-09-30T06:25:55;21.20;80.60
24144;DHT22;12307;50.828;6.080;2023-09-30T06:28:21;21.20;79.90
24144;DHT22;12307;50.828;6.080;2023-09-30T06:30:52;21.20;79.80
24144;DHT22;12307;50.828;6.080;2023-09-30T06:33:18;21.20;79.80
24144;DHT22;12307;50.828;6.080;2023-09-30T06:35:44;21.20;79.90
24144;DHT22;12307;50.828;6.080;2023-09-30T06:38:16;21.20;79.80
24144;DHT22;12307;50.828;6.080;2023-09-30T06:40:43;21.20;79.70
24144;DHT22;12307;50.828;6.080;2023-09-30T06:43:08;21.20;79.70
24144;DHT22;12307;50.828;6.080;2023-09-30T06:45:34;21.20;79.70
24144;DHT22;12307;50.828;6.080;2023-09-30T06:48:06;21.20;79.70
24144;DHT22;12307;50.828;6.080;2023-09-30T06:50:32;21.20;79.60
24144;DHT22;12307;50.828;6.080;2023-09-30T06:52:57;21.20;79.60
24144;DHT22;12307;50.828;6.080;2023-09-30T06:55:24;21.20;79.60
24144;DHT22;12307;50.828;6.080;2023-09-30T06:57:52;21.30;79.60
24144;DHT22;12307;50.828;6.080;2023-09-30T07:00:18;21.20;79.50
24144;DHT22;12307;50.828;6.080;2023-09-30T07:02:44;21.20;79.40
24144;DHT22;12307;50.828;6.080;2023-09-30T07:05:14;21.20;79.40
24144;DHT22;12307;50.828;6.080;2023-09-30T07:07:40;21.30;80.30
24144;DHT22;12307;50.828;6.080;2023-09-30T07:10:09;21.30;79.40
24144;DHT22;12307;50.828;6.080;2023-09-30T07:12:35;21.30;79.40
24144;DHT22;12307;50.828;6.080;2023-09-30T07:15:01;21.30;79.40
24144;DHT22;12307;50.828;6.080;2023-09-30T07:17:28;21.40;79.40
24144;DHT22;12307;50.828;6.080;2023-09-30T07:19:53;21.40;79.40
24144;DHT22;12307;50.828;6.080;2023-09-30T07:22:20;21.40;79.30
24144;DHT22;12307;50.828;6.080;2023-09-30T07:24:46;21.50;79.30
24144;DHT22;12307;50.828;6.080;2023-09-30T07:27:13;21.60;79.10
24144;DHT22;12307;50.828;6.080;2023-09-30T07:29:39;21.70;78.90
24144;DHT22;12307;50.828;6.080;2023-09-30T07:34:31;21.80;78.60
24144;DHT22;12307;50.828;6.080;2023-09-30T07:36:57;21.90;78.50
24144;DHT22;12307;50.828;6.080;2023-09-30T07:39:24;22.00;78.40
24144;DHT22;12307;50.828;6.080;2023-09-30T07:41:50;22.00;78.20
24144;DHT22;12307;50.828;6.080;2023-09-30T07:44:15;22.10;78.10
24144;DHT22;12307;50.828;6.080;2023-09-30T07:46:41;22.20;78.00
24144;DHT22;12307;50.828;6.080;2023-09-30T07:49:08;22.20;77.90
24144;DHT22;12307;50.828;6.080;2023-09-30T07:51:33;22.30;77.80
24144;DHT22;12307;50.828;6.080;2023-09-30T07:53:59;22.40;77.70
24144;DHT22;12307;50.828;6.080;2023-09-30T07:56:26;22.40;77.50
24144;DHT22;12307;50.828;6.080;2023-09-30T07:58:52;22.50;77.50
24144;DHT22;12307;50.828;6.080;2023-09-30T08:01:18;22.60;77.40
24144;DHT22;12307;50.828;6.080;2023-09-30T08:03:43;22.60;77.30
24144;DHT22;12307;50.828;6.080;2023-09-30T08:06:09;22.70;77.20
24144;DHT22;12307;50.828;6.080;2023-09-30T08:08:35;22.70;77.00
24144;DHT22;12307;50.828;6.080;2023-09-30T08:11:01;22.80;76.90
24144;DHT22;12307;50.828;6.080;2023-09-30T08:13:28;22.90;76.80
24144;DHT22;12307;50.828;6.080;2023-09-30T08:15:58;22.90;76.60
24144;DHT22;12307;50.828;6.080;2023-09-30T08:18:23;23.00;76.50
24144;DHT22;12307;50.828;6.080;2023-09-30T08:20:49;23.10;76.40
24144;DHT22;12307;50.828;6.080;2023-09-30T08:23:15;23.10;76.20
24144;DHT22;12307;50.828;6.080;2023-09-30T08:25:41;23.20;76.20
24144;DHT22;12307;50.828;6.080;2023-09-30T08:28:06;23.20;76.00
24144;DHT22;12307;50.828;6.080;2023-09-30T08:30:34;23.30;75.90
24144;DHT22;12307;50.828;6.080;2023-09-30T08:32:59;23.30;75.70
24144;DHT22;12307;50.828;6.080;2023-09-30T08:35:25;23.40;75.60
24144;DHT22;12307;50.828;6.080;2023-09-30T08:37:51;23.50;75.40
24144;DHT22;12307;50.828;6.080;2023-09-30T08:40:20;23.50;75.30
24144;DHT22;12307;50.828;6.080;2023-09-30T08:42:48;23.60;75.20
24144;DHT22;12307;50.828;6.080;2023-09-30T08:45:17;23.60;75.00
24144;DHT22;12307;50.828;6.080;2023-09-30T08:47:45;23.70;74.90
24144;DHT22;12307;50.828;6.080;2023-09-30T08:50:12;23.70;74.70
24144;DHT22;12307;50.828;6.080;2023-09-30T08:52:40;23.80;74.70
24144;DHT22;12307;50.828;6.080;2023-09-30T08:55:07;23.80;74.50
24144;DHT22;12307;50.828;6.080;2023-09-30T08:57:35;23.90;74.30
24144;DHT22;12307;50.828;6.080;2023-09-30T09:00:03;24.00;74.10
24144;DHT22;12307;50.828;6.080;2023-09-30T09:02:29;24.10;74.00
24144;DHT22;12307;50.828;6.080;2023-09-30T09:04:58;24.10;73.80
24144;DHT22;12307;50.828;6.080;2023-09-30T09:07:24;24.20;73.60
24144;DHT22;12307;50.828;6.080;2023-09-30T09:10:06;24.20;73.50
24144;DHT22;12307;50.828;6.080;2023-09-30T09:12:34;24.30;73.20
24144;DHT22;12307;50.828;6.080;2023-09-30T09:15:00;24.40;73.20
24144;DHT22;12307;50.828;6.080;2023-09-30T09:17:39;24.50;73.00
24144;DHT22;12307;50.828;6.080;2023-09-30T09:20:09;24.50;72.70
24144;DHT22;12307;50.828;6.080;2023-09-30T09:22:39;24.60;72.60
24144;DHT22;12307;50.828;6.080;2023-09-30T09:25:06;24.70;72.40
24144;DHT22;12307;50.828;6.080;2023-09-30T09:27:34;24.70;72.20
24144;DHT22;12307;50.828;6.080;2023-09-30T09:30:19;24.80;72.00
24144;DHT22;12307;50.828;6.080;2023-09-30T09:33:01;24.90;71.80
24144;DHT22;12307;50.828;6.080;2023-09-30T09:35:28;24.90;71.50
24144;DHT22;12307;50.828;6.080;2023-09-30T09:37:57;25.00;71.40
24144;DHT22;12307;50.828;6.080;2023-09-30T09:40:23;25.10;71.30
24144;DHT22;12307;50.828;6.080;2023-09-30T09:42:52;25.20;71.10
24144;DHT22;12307;50.828;6.080;2023-09-30T09:45:21;25.20;70.80
24144;DHT22;12307;50.828;6.080;2023-09-30T09:47:48;25.30;70.70
24144;DHT22;12307;50.828;6.080;2023-09-30T09:50:14;25.30;70.40
24144;DHT22;12307;50.828;6.080;2023-09-30T09:52:42;25.40;70.20
24144;DHT22;12307;50.828;6.080;2023-09-30T09:55:10;25.40;69.90
24144;DHT22;12307;50.828;6.080;2023-09-30T09:57:37;25.50;69.70
24144;DHT22;12307;50.828;6.080;2023-09-30T10:00:04;25.60;69.50
24144;DHT22;12307;50.828;6.080;2023-09-30T10:02:39;25.70;69.40
24144;DHT22;12307;50.828;6.080;2023-09-30T10:05:05;25.70;69.00
24144;DHT22;12307;50.828;6.080;2023-09-30T10:07:35;25.80;68.90
24144;DHT22;12307;50.828;6.080;2023-09-30T10:10:07;25.90;68.70
24144;DHT22;12307;50.828;6.080;2023-09-30T10:12:36;25.90;68.40
24144;DHT22;12307;50.828;6.080;2023-09-30T10:15:34;26.00;68.30
24144;DHT22;12307;50.828;6.080;2023-09-30T10:18:02;26.00;67.80
24144;DHT22;12307;50.828;6.080;2023-09-30T10:20:29;26.00;67.80
24144;DHT22;12307;50.828;6.080;2023-09-30T10:23:19;25.90;67.70
24144;DHT22;12307;50.828;6.080;2023-09-30T10:25:48;25.90;67.60
24144;DHT22;12307;50.828;6.080;2023-09-30T10:28:33;25.80;67.40
24144;DHT22;12307;50.828;6.080;2023-09-30T10:31:08;25.80;67.30
24144;DHT22;12307;50.828;6.080;2023-09-30T10:33:35;25.70;67.10
24144;DHT22;12307;50.828;6.080;2023-09-30T10:36:02;25.70;67.10
24144;DHT22;12307;50.828;6.080;2023-09-30T10:38:39;25.70;67.10
24144;DHT22;12307;50.828;6.080;2023-09-30T10:41:08;25.60;66.90
24144;DHT22;12307;50.828;6.080;2023-09-30T10:43:35;25.60;66.90
24144;DHT22;12307;50.828;6.080;2023-09-30T10:46:02;25.70;66.90
24144;DHT22;12307;50.828;6.080;2023-09-30T10:48:35;25.80;66.80
24144;DHT22;12307;50.828;6.080;2023-09-30T10:51:02;25.80;66.60
24144;DHT22;12307;50.828;6.080;2023-09-30T10:53:41;25.80;66.60
24144;DHT22;12307;50.828;6.080;2023-09-30T10:56:08;25.70;66.50
24144;DHT22;12307;50.828;6.080;2023-09-30T10:58:41;25.70;66.50
24144;DHT22;12307;50.828;6.080;2023-09-30T11:01:07;25.70;66.50
24144;DHT22;12307;50.828;6.080;2023-09-30T11:03:33;25.70;66.40
24144;DHT22;12307;50.828;6.080;2023-09-30T11:05:59;25.70;66.40
24144;DHT22;12307;50.828;6.080;2023-09-30T11:08:28;25.80;66.30
24144;DHT22;12307;50.828;6.080;2023-09-30T11:10:55;25.80;66.20
24144;DHT22;12307;50.828;6.080;2023-09-30T11:13:23;25.90;66.20
24144;DHT22;12307;50.828;6.080;2023-09-30T11:16:00;26.00;66.10
24144;DHT22;12307;50.828;6.080;2023-09-30T11:18:28;26.00;66.00
24144;DHT22;12307;50.828;6.080;2023-09-30T11:21:07;26.00;65.80
24144;DHT22;12307;50.828;6.080;2023-09-30T11:23:33;26.00;65.80
24144;DHT22;12307;50.828;6.080;2023-09-30T11:25:59;26.00;65.80
24144;DHT22;12307;50.828;6.080;2023-09-30T11:28:35;26.10;65.70
24144;DHT22;12307;50.828;6.080;2023-09-30T11:31:02;26.30;65.60
24144;DHT22;12307;50.828;6.080;2023-09-30T11:33:28;26.40;65.40
24144;DHT22;12307;50.828;6.080;2023-09-30T11:35:57;26.60;65.20
24144;DHT22;12307;50.828;6.080;2023-09-30T11:38:23;26.70;65.10
24144;DHT22;12307;50.828;6.080;2023-09-30T11:40:58;26.60;65.00
24144;DHT22;12307;50.828;6.080;2023-09-30T11:43:26;26.50;65.00
24144;DHT22;12307;50.828;6.080;2023-09-30T11:45:52;26.60;65.00
24144;DHT22;12307;50.828;6.080;2023-09-30T11:48:29;26.70;64.80
24144;DHT22;12307;50.828;6.080;2023-09-30T11:50:54;26.80;64.60
24144;DHT22;12307;50.828;6.080;2023-09-30T11:53:25;26.80;64.40
24144;DHT22;12307;50.828;6.080;2023-09-30T11:55:50;26.80;64.20
24144;DHT22;12307;50.828;6.080;2023-09-30T11:58:21;26.70;64.10
24144;DHT22;12307;50.828;6.080;2023-09-30T12:00:49;26.70;64.00
24144;DHT22;12307;50.828;6.080;2023-09-30T12:03:17;26.60;64.00
24144;DHT22;12307;50.828;6.080;2023-09-30T12:05:43;26.50;64.00
24144;DHT22;12307;50.828;6.080;2023-09-30T12:08:11;26.50;64.00
24144;DHT22;12307;50.828;6.080;2023-09-30T12:10:36;26.40;64.10
24144;DHT22;12307;50.828;6.080;2023-09-30T12:13:03;26.40;64.10
24144;DHT22;12307;50.828;6.080;2023-09-30T12:15:28;26.30;64.20
24144;DHT22;12307;50.828;6.080;2023-09-30T12:17:55;26.20;64.20
24144;DHT22;12307;50.828;6.080;2023-09-30T12:20:21;26.10;64.30
24144;DHT22;12307;50.828;6.080;2023-09-30T12:22:47;26.10;64.40
24144;DHT22;12307;50.828;6.080;2023-09-30T12:25:14;26.00;64.40
24144;DHT22;12307;50.828;6.080;2023-09-30T12:27:40;26.00;64.50
24144;DHT22;12307;50.828;6.080;2023-09-30T12:30:06;25.90;64.60
24144;DHT22;12307;50.828;6.080;2023-09-30T12:32:32;25.90;64.70
24144;DHT22;12307;50.828;6.080;2023-09-30T12:34:59;25.90;64.70
24144;DHT22;12307;50.828;6.080;2023-09-30T12:37:25;25.80;64.70
24144;DHT22;12307;50.828;6.080;2023-09-30T12:39:50;25.80;64.80
24144;DHT22;12307;50.828;6.080;2023-09-30T12:42:17;25.80;64.90
24144;DHT22;12307;50.828;6.080;2023-09-30T12:44:42;25.70;64.90
24144;DHT22;12307;50.828;6.080;2023-09-30T12:47:08;25.70;65.00
24144;DHT22;12307;50.828;6.080;2023-09-30T12:49:34;25.70;65.10
24144;DHT22;12307;50.828;6.080;2023-09-30T12:52:01;25.70;65.20
24144;DHT22;12307;50.828;6.080;2023-09-30T12:54:27;25.70;65.10
24144;DHT22;12307;50.828;6.080;2023-09-30T12:56:52;25.60;65.20
24144;DHT22;12307;50.828;6.080;2023-09-30T12:59:18;25.60;65.20
24144;DHT22;12307;50.828;6.080;2023-09-30T13:01:45;25.60;65.30
24144;DHT22;12307;50.828;6.080;2023-09-30T13:04:12;25.60;65.40
24144;DHT22;12307;50.828;6.080;2023-09-30T13:06:37;25.60;65.40
24144;DHT22;12307;50.828;6.080;2023-09-30T13:09:04;25.60;65.50
24144;DHT22;12307;50.828;6.080;2023-09-30T13:11:30;25.50;65.50
24144;DHT22;12307;50.828;6.080;2023-09-30T13:13:56;25.50;65.50
24144;DHT22;12307;50.828;6.080;2023-09-30T13:16:22;25.50;65.60
24144;DHT22;12307;50.828;6.080;2023-09-30T13:18:48;25.50;65.70
24144;DHT22;12307;50.828;6.080;2023-09-30T13:21:13;25.40;65.70
24144;DHT22;12307;50.828;6.080;2023-09-30T13:23:39;25.40;65.80
24144;DHT22;12307;50.828;6.080;2023-09-30T13:26:06;25.40;65.80
24144;DHT22;12307;50.828;6.080;2023-09-30T13:28:33;25.40;65.90
24144;DHT22;12307;50.828;6.080;2023-09-30T13:30:58;25.40;66.00
24144;DHT22;12307;50.828;6.080;2023-09-30T13:33:24;25.40;66.00
24144;DHT22;12307;50.828;6.080;2023-09-30T13:35:50;25.40;66.10
24144;DHT22;12307;50.828;6.080;2023-09-30T13:38:16;25.30;66.00
24144;DHT22;12307;50.828;6.080;2023-09-30T13:40:41;25.30;66.00
24144;DHT22;12307;50.828;6.080;2023-09-30T13:43:09;25.30;66.90
24144;DHT22;12307;50.828;6.080;2023-09-30T13:45:34;25.30;66.20
24144;DHT22;12307;50.828;6.080;2023-09-30T13:48:00;25.30;66.30
24144;DHT22;12307;50.828;6.080;2023-09-30T13:50:26;25.30;66.30
24144;DHT22;12307;50.828;6.080;2023-09-30T13:52:52;25.20;66.30
24144;DHT22;12307;50.828;6.080;2023-09-30T13:55:17;25.20;66.30
24144;DHT22;12307;50.828;6.080;2023-09-30T13:57:46;25.20;66.40
24144;DHT22;12307;50.828;6.080;2023-09-30T14:00:14;25.20;66.40
24144;DHT22;12307;50.828;6.080;2023-09-30T14:02:40;25.10;66.30
24144;DHT22;12307;50.828;6.080;2023-09-30T14:05:06;25.10;66.50
24144;DHT22;12307;50.828;6.080;2023-09-30T14:07:36;25.10;66.50
24144;DHT22;12307;50.828;6.080;2023-09-30T14:10:02;25.10;66.50
24144;DHT22;12307;50.828;6.080;2023-09-30T14:12:27;25.10;66.60
24144;DHT22;12307;50.828;6.080;2023-09-30T14:14:53;25.10;66.60
24144;DHT22;12307;50.828;6.080;2023-09-30T14:17:20;25.10;66.70
24144;DHT22;12307;50.828;6.080;2023-09-30T14:19:46;25.10;66.80
24144;DHT22;12307;50.828;6.080;2023-09-30T14:22:12;25.00;66.80
24144;DHT22;12307;50.828;6.080;2023-09-30T14:24:37;25.00;66.80
24144;DHT22;12307;50.828;6.080;2023-09-30T14:27:03;25.00;66.80
24144;DHT22;12307;50.828;6.080;2023-09-30T14:29:30;25.00;66.90
24144;DHT22;12307;50.828;6.080;2023-09-30T14:31:56;25.00;66.90
24144;DHT22;12307;50.828;6.080;2023-09-30T14:34:23;25.00;67.00
24144;DHT22;12307;50.828;6.080;2023-09-30T14:36:49;24.90;67.00
24144;DHT22;12307;50.828;6.080;2023-09-30T14:39:15;24.90;67.10
24144;DHT22;12307;50.828;6.080;2023-09-30T14:41:41;24.90;67.10
24144;DHT22;12307;50.828;6.080;2023-09-30T14:44:07;24.90;67.20
24144;DHT22;12307;50.828;6.080;2023-09-30T14:46:33;24.90;67.20
24144;DHT22;12307;50.828;6.080;2023-09-30T14:48:59;24.90;67.20
24144;DHT22;12307;50.828;6.080;2023-09-30T14:51:26;24.80;67.20
24144;DHT22;12307;50.828;6.080;2023-09-30T14:53:52;24.80;67.20
24144;DHT22;12307;50.828;6.080;2023-09-30T14:56:18;24.80;67.30
24144;DHT22;12307;50.828;6.080;2023-09-30T14:58:44;24.80;67.30
24144;DHT22;12307;50.828;6.080;2023-09-30T15:01:10;24.80;67.40
24144;DHT22;12307;50.828;6.080;2023-09-30T15:03:36;24.80;67.40
24144;DHT22;12307;50.828;6.080;2023-09-30T15:06:04;24.70;67.40
24144;DHT22;12307;50.828;6.080;2023-09-30T15:08:31;24.70;67.40
24144;DHT22;12307;50.828;6.080;2023-09-30T15:10:57;24.70;67.50
24144;DHT22;12307;50.828;6.080;2023-09-30T15:13:23;24.70;67.50
24144;DHT22;12307;50.828;6.080;2023-09-30T15:15:49;24.70;67.60
24144;DHT22;12307;50.828;6.080;2023-09-30T15:18:14;24.70;67.60
24144;DHT22;12307;50.828;6.080;2023-09-30T15:20:40;24.70;67.60
24144;DHT22;12307;50.828;6.080;2023-09-30T15:23:06;24.70;67.70
24144;DHT22;12307;50.828;6.080;2023-09-30T15:25:33;24.60;67.60
24144;DHT22;12307;50.828;6.080;2023-09-30T15:27:59;24.60;67.60
24144;DHT22;12307;50.828;6.080;2023-09-30T15:30:24;24.60;67.70
24144;DHT22;12307;50.828;6.080;2023-09-30T15:32:50;24.60;67.80